Austin, Texas
Traffic Map
Current Weather Conditions
Austin, Texas
Clear
Clear
79°
Feels Like: 82°
Wind Chill: 79° Ceiling: Unl
Heat Index: 82° Visibility: 10mi
Dew Point: 71° Wind: 0mph
Humidity: 77% Direction: ° ()
Pressure: 30.08in Gusts: 0mph
Raw Report DataKATT 290851Z AUTO 00000KT 10SM CLR 26/22 A3008 RMK AO2 SLP167 T02610217 58003
Traffic Incident Summary
Active as of:
Severity:
Category:
InformationThere was an issue retrieving the traffic information for this location. Please try a different location or try again shortly.
Advertisements
Track Severe Weather on mobile